createdAt,value
2018-06-28T00:00:08.623Z,70.27
2018-06-28T00:00:49.214Z,70.17
2018-06-28T00:01:29.782Z,70.27
2018-06-28T00:02:10.320Z,70.07
2018-06-28T00:02:50.905Z,70.84
2018-06-28T00:03:31.424Z,71.04
2018-06-28T00:04:11.974Z,70.94
2018-06-28T00:04:52.547Z,70.07
2018-06-28T00:05:33.103Z,70.17
2018-06-28T00:06:13.671Z,70.07
2018-06-28T00:06:54.237Z,70.27
2018-06-28T00:07:34.808Z,70.07
2018-06-28T00:08:15.370Z,70.65
2018-06-28T00:08:56.103Z,70.84
2018-06-28T00:09:36.442Z,70.56
2018-06-28T00:10:17.036Z,70.75
2018-06-28T00:10:57.528Z,70.56
2018-06-28T00:11:38.110Z,70.94
2018-06-28T00:12:18.650Z,70.65
2018-06-28T00:12:59.187Z,70.65
2018-06-28T00:13:39.735Z,70.56
2018-06-28T00:14:20.312Z,70.75
2018-06-28T00:15:00.847Z,70.56
2018-06-28T00:15:41.406Z,70.56
2018-06-28T00:16:21.951Z,70.52
2018-06-28T00:17:02.505Z,70.84
2018-06-28T00:17:43.054Z,70.84
2018-06-28T00:18:23.606Z,70.62
2018-06-28T00:19:04.177Z,70.94
2018-06-28T00:19:44.703Z,70.84
2018-06-28T00:20:25.252Z,70.62
2018-06-28T00:21:05.809Z,70.72
2018-06-28T00:21:46.360Z,70.81
2018-06-28T00:22:26.908Z,71
2018-06-28T00:23:07.448Z,70.72
2018-06-28T00:23:48.012Z,70.62
2018-06-28T00:24:28.574Z,70.72
2018-06-28T00:25:09.167Z,71.1
2018-06-28T00:25:49.720Z,71.29
2018-06-28T00:26:30.292Z,71.1
2018-06-28T00:27:10.817Z,71.48
2018-06-28T00:27:51.366Z,71.1
2018-06-28T00:28:31.939Z,71.67
2018-06-28T00:29:12.489Z,71.29
2018-06-28T00:29:53.035Z,71.29
2018-06-28T00:30:33.578Z,71.67
2018-06-28T00:31:14.114Z,71.19
2018-06-28T00:31:54.665Z,71.1
2018-06-28T00:32:35.239Z,71.39
2018-06-28T00:33:15.790Z,71.67
2018-06-28T00:33:56.340Z,71.58
2018-06-28T00:34:36.924Z,71.58
2018-06-28T00:35:17.460Z,71.29
2018-06-28T00:35:58.004Z,71.67
2018-06-28T00:36:38.578Z,71.58
2018-06-28T00:37:19.125Z,71.77
2018-06-28T00:37:59.671Z,71.67
2018-06-28T00:38:40.242Z,71.96
2018-06-28T00:39:20.802Z,71.87
2018-06-28T00:40:01.341Z,71.77
2018-06-28T00:40:41.897Z,71.96
2018-06-28T00:41:22.443Z,72.06
2018-06-28T00:42:02.996Z,71.87
2018-06-28T00:42:43.539Z,72.06
2018-06-28T00:43:24.096Z,72.06
2018-06-28T00:44:04.649Z,71.96
2018-06-28T00:44:45.201Z,72.25
2018-06-28T00:45:28.308Z,72.06
2018-06-28T00:46:09.260Z,72.16
2018-06-28T00:46:49.815Z,72.54
2018-06-28T00:47:30.370Z,72.16
2018-06-28T00:48:10.913Z,72.34
2018-06-28T00:48:51.454Z,72.25
2018-06-28T00:49:32.011Z,72.5
2018-06-28T00:50:12.564Z,72.25
2018-06-28T00:50:53.099Z,72.54
2018-06-28T00:51:33.647Z,72.25
2018-06-28T00:52:14.201Z,72.54
2018-06-28T00:52:54.751Z,72.44
2018-06-28T00:53:35.301Z,72.69
2018-06-28T00:54:15.854Z,72.5
2018-06-28T00:54:56.400Z,72.54
2018-06-28T00:55:36.972Z,72.69
2018-06-28T00:56:17.528Z,72.54
2018-06-28T00:56:58.079Z,72.54
2018-06-28T00:57:38.647Z,72.69
2018-06-28T00:58:19.256Z,72.5
2018-06-28T00:58:59.795Z,72.69
2018-06-28T00:59:40.357Z,72.64
2018-06-28T01:00:20.906Z,72.64
2018-06-28T01:01:01.476Z,72.6
2018-06-28T01:01:42.031Z,72.69
2018-06-28T01:02:22.617Z,72.83
2018-06-28T01:03:03.174Z,72.69
2018-06-28T01:03:43.762Z,72.6
2018-06-28T01:04:24.320Z,72.6
2018-06-28T01:05:04.885Z,73.08
2018-06-28T01:05:45.420Z,73.02
2018-06-28T01:06:25.970Z,72.99
2018-06-28T01:07:06.525Z,72.79
2018-06-28T01:07:47.072Z,73.27
2018-06-28T01:08:27.617Z,73.08
2018-06-28T01:09:08.178Z,73.18
2018-06-28T01:09:48.743Z,72.89
2018-06-28T01:10:29.300Z,72.99
2018-06-28T01:11:09.852Z,72.99
2018-06-28T01:11:50.373Z,73.18
2018-06-28T01:12:30.923Z,73.18
2018-06-28T01:13:11.457Z,72.89
2018-06-28T01:13:52.010Z,72.99
2018-06-28T01:14:32.576Z,73.27
2018-06-28T01:15:13.119Z,72.89
2018-06-28T01:15:53.679Z,72.99
2018-06-28T01:16:34.218Z,73.37
2018-06-28T01:17:14.756Z,73.08
2018-06-28T01:17:55.326Z,72.79
2018-06-28T01:18:35.934Z,73.08
2018-06-28T01:19:16.429Z,73.37
2018-06-28T01:19:56.967Z,73.27
2018-06-28T01:20:37.533Z,73.18
2018-06-28T01:21:18.071Z,73.37
2018-06-28T01:21:58.646Z,73.75
2018-06-28T01:22:39.186Z,73.56
2018-06-28T01:23:19.725Z,73.56
2018-06-28T01:24:00.274Z,73.37
2018-06-28T01:24:40.799Z,73.37
2018-06-28T01:25:21.333Z,73.46
2018-06-28T01:26:01.897Z,73.37
2018-06-28T01:26:42.425Z,73.46
2018-06-28T01:27:23.002Z,73.46
2018-06-28T01:28:03.563Z,73.27
2018-06-28T01:28:44.105Z,73.66
2018-06-28T01:29:24.659Z,73.66
2018-06-28T01:30:05.205Z,73.56
2018-06-28T01:30:45.780Z,73.56
2018-06-28T01:31:26.354Z,73.66
2018-06-28T01:32:06.891Z,73.66
2018-06-28T01:32:47.436Z,74.13
2018-06-28T01:33:27.971Z,73.85
2018-06-28T01:34:08.518Z,74.13
2018-06-28T01:34:49.063Z,74.13
2018-06-28T01:35:29.602Z,73.94
2018-06-28T01:36:10.135Z,74.13
2018-06-28T01:36:50.701Z,74.23
2018-06-28T01:37:31.262Z,74.23
2018-06-28T01:38:11.827Z,74.13
2018-06-28T01:38:52.370Z,74.71
2018-06-28T01:39:32.910Z,74.43
2018-06-28T01:40:13.491Z,74.39
2018-06-28T01:40:54.040Z,74.33
2018-06-28T01:41:34.610Z,74.43
2018-06-28T01:42:15.169Z,74.29
2018-06-28T01:42:55.705Z,74.39
2018-06-28T01:43:36.243Z,74.39
2018-06-28T01:44:16.811Z,74.29
2018-06-28T01:44:57.344Z,74.23
2018-06-28T01:45:37.898Z,74.43
2018-06-28T01:46:18.437Z,74.29
2018-06-28T01:46:58.992Z,74.29
2018-06-28T01:47:39.538Z,74.29
2018-06-28T01:48:20.093Z,74.1
2018-06-28T01:49:00.643Z,74.39
2018-06-28T01:49:41.215Z,74.19
2018-06-28T01:50:21.786Z,74.19
2018-06-28T01:51:02.361Z,74.29
2018-06-28T01:51:42.921Z,74.29
2018-06-28T01:52:23.488Z,74.48
2018-06-28T01:53:04.073Z,74.39
2018-06-28T01:53:44.588Z,74.39
2018-06-28T01:54:25.163Z,74.68
2018-06-28T01:55:05.713Z,74.81
2018-06-28T01:55:46.253Z,74.96
2018-06-28T01:56:26.815Z,74.58
2018-06-28T01:57:07.342Z,74.77
2018-06-28T01:57:47.879Z,75.06
2018-06-28T01:58:28.469Z,74.39
2018-06-28T01:59:09.023Z,74.58
2018-06-28T01:59:49.601Z,74.58
2018-06-28T02:00:30.155Z,74.29
2018-06-28T02:01:10.703Z,74.39
2018-06-28T02:01:51.255Z,74.58
2018-06-28T02:02:31.830Z,74.39
2018-06-28T02:03:12.395Z,74.39
2018-06-28T02:03:52.944Z,74.77
2018-06-28T02:04:33.488Z,75.25
2018-06-28T02:05:14.036Z,74.77
2018-06-28T02:05:54.595Z,75.15
2018-06-28T02:06:35.150Z,75.15
2018-06-28T02:07:15.690Z,75.15
2018-06-28T02:07:56.264Z,75.15
2018-06-28T02:08:36.800Z,74.96
2018-06-28T02:09:17.408Z,74.87
2018-06-28T02:09:57.907Z,74.77
2018-06-28T02:10:38.479Z,75.35
2018-06-28T02:11:19.024Z,74.96
2018-06-28T02:11:59.567Z,75.35
2018-06-28T02:12:40.094Z,75.06
2018-06-28T02:13:20.675Z,75.35
2018-06-28T02:14:01.229Z,75.54
2018-06-28T02:14:41.774Z,74.96
2018-06-28T02:15:22.325Z,75.45
2018-06-28T02:16:02.879Z,75.25
2018-06-28T02:16:43.430Z,75.25
2018-06-28T02:17:23.975Z,75.35
2018-06-28T02:18:04.505Z,75.45
2018-06-28T02:18:45.058Z,75.45
2018-06-28T02:19:25.602Z,75.82
2018-06-28T02:20:06.144Z,75.92
2018-06-28T02:20:46.688Z,75.63
2018-06-28T02:21:27.236Z,75.73
2018-06-28T02:22:07.805Z,75.92
2018-06-28T02:22:48.372Z,75.73
2018-06-28T02:23:28.931Z,75.73
2018-06-28T02:24:09.504Z,75.45
2018-06-28T02:24:50.090Z,75.82
2018-06-28T02:25:30.678Z,75.35
2018-06-28T02:26:11.226Z,75.73
2018-06-28T02:26:51.796Z,75.63
2018-06-28T02:27:32.343Z,75.73
2018-06-28T02:28:12.901Z,75.73
2018-06-28T02:28:53.478Z,75.73
2018-06-28T02:29:34.050Z,75.92
2018-06-28T02:30:14.615Z,75.73
2018-06-28T02:30:55.163Z,75.92
2018-06-28T02:31:35.724Z,75.82
2018-06-28T02:32:16.279Z,75.63
2018-06-28T02:32:56.841Z,75.73
2018-06-28T02:33:37.393Z,75.73
2018-06-28T02:34:17.946Z,75.73
2018-06-28T02:34:58.532Z,75.73
2018-06-28T02:35:39.138Z,75.73
2018-06-28T02:36:19.701Z,75.82
2018-06-28T02:37:00.245Z,75.92
2018-06-28T02:37:40.813Z,75.73
2018-06-28T02:38:21.364Z,75.73
2018-06-28T02:39:01.938Z,75.82
2018-06-28T02:39:42.498Z,75.63
2018-06-28T02:40:23.070Z,75.63
2018-06-28T02:41:03.634Z,75.82
2018-06-28T02:41:44.193Z,75.63
2018-06-28T02:42:24.761Z,75.54
2018-06-28T02:43:05.330Z,76.21
2018-06-28T02:43:45.894Z,76.12
2018-06-28T02:44:26.463Z,76.21
2018-06-28T02:45:07.033Z,76.21
2018-06-28T02:45:47.592Z,75.92
2018-06-28T02:46:28.177Z,76.02
2018-06-28T02:47:08.726Z,76.21
2018-06-28T02:47:49.281Z,75.73
2018-06-28T02:48:29.847Z,76.21
2018-06-28T02:49:10.418Z,75.54
2018-06-28T02:49:51.006Z,75.82
2018-06-28T02:50:31.567Z,75.73
2018-06-28T02:51:12.131Z,75.73
2018-06-28T02:51:52.699Z,75.54
2018-06-28T02:52:33.259Z,76.21
2018-06-28T02:53:13.804Z,75.82
2018-06-28T02:53:54.392Z,75.73
2018-06-28T02:54:34.961Z,75.92
2018-06-28T02:55:15.519Z,76.02
2018-06-28T02:55:56.083Z,76.21
2018-06-28T02:56:36.638Z,75.82
2018-06-28T02:57:17.181Z,76.21
2018-06-28T02:57:57.749Z,75.63
2018-06-28T02:58:38.312Z,76.12
2018-06-28T02:59:18.877Z,76.21
2018-06-28T02:59:59.432Z,75.82
2018-06-28T03:00:39.986Z,76.12
2018-06-28T03:01:20.576Z,76.59
2018-06-28T03:02:01.120Z,76.59
2018-06-28T03:02:41.692Z,76.12
2018-06-28T03:03:22.240Z,76.21
2018-06-28T03:04:02.771Z,76.12
2018-06-28T03:04:43.337Z,76.4
2018-06-28T03:05:23.891Z,76.5
2018-06-28T03:06:04.448Z,76.5
2018-06-28T03:06:44.991Z,76.4
2018-06-28T03:07:25.538Z,76.4
2018-06-28T03:08:06.088Z,76.4
2018-06-28T03:08:46.638Z,76.4
2018-06-28T03:09:27.188Z,76.59
2018-06-28T03:10:07.769Z,76.69
2018-06-28T03:10:48.348Z,76.79
2018-06-28T03:11:28.909Z,76.59
2018-06-28T03:12:09.470Z,76.5
2018-06-28T03:12:50.031Z,76.56
2018-06-28T03:13:30.568Z,76.59
2018-06-28T03:14:11.130Z,76.5
2018-06-28T03:14:51.690Z,76.79
2018-06-28T03:15:32.242Z,76.59
2018-06-28T03:16:12.800Z,76.56
2018-06-28T03:16:53.331Z,76.75
2018-06-28T03:17:33.894Z,76.75
2018-06-28T03:18:14.445Z,76.56
2018-06-28T03:18:55.360Z,76.59
2018-06-28T03:19:35.929Z,76.5
2018-06-28T03:20:16.477Z,76.59
2018-06-28T03:20:57.051Z,76.79
2018-06-28T03:21:37.616Z,77.26
2018-06-28T03:22:18.167Z,77.26
2018-06-28T03:22:58.722Z,77.46
2018-06-28T03:23:39.295Z,77.17
2018-06-28T03:24:19.864Z,76.69
2018-06-28T03:25:00.570Z,76.79
2018-06-28T03:25:41.121Z,76.5
2018-06-28T03:26:21.684Z,76.69
2018-06-28T03:27:02.260Z,76.5
2018-06-28T03:27:42.846Z,76.88
2018-06-28T03:28:23.413Z,76.69
2018-06-28T03:29:03.959Z,76.59
2018-06-28T03:29:44.524Z,77.36
2018-06-28T03:30:25.062Z,76.88
2018-06-28T03:31:05.711Z,76.59
2018-06-28T03:31:46.179Z,76.88
2018-06-28T03:32:26.740Z,76.79
2018-06-28T03:33:07.288Z,76.5
2018-06-28T03:33:47.850Z,76.88
2018-06-28T03:34:28.869Z,76.31
2018-06-28T03:35:09.401Z,76.31
2018-06-28T03:35:49.961Z,76.31
2018-06-28T03:36:30.521Z,76.59
2018-06-28T03:37:11.084Z,76.59
2018-06-28T03:37:51.765Z,76.31
2018-06-28T03:38:32.227Z,76.79
2018-06-28T03:39:12.780Z,76.31
2018-06-28T03:39:53.344Z,76.59
2018-06-28T03:40:33.900Z,76.31
2018-06-28T03:41:14.468Z,76.59
2018-06-28T03:41:55.045Z,76.59
2018-06-28T03:42:35.606Z,76.88
2018-06-28T03:43:16.157Z,76.79
2018-06-28T03:43:56.719Z,76.88
2018-06-28T03:44:37.298Z,76.79
2018-06-28T03:45:17.852Z,76.59
2018-06-28T03:45:58.511Z,76.5
2018-06-28T03:46:39.001Z,76.79
2018-06-28T03:47:19.576Z,76.69
2018-06-28T03:48:00.163Z,76.69
2018-06-28T03:48:40.737Z,76.59
2018-06-28T03:49:21.309Z,76.88
2018-06-28T03:50:01.863Z,76.59
2018-06-28T03:50:42.445Z,76.5
2018-06-28T03:51:23.005Z,76.59
2018-06-28T03:52:03.578Z,77.17
2018-06-28T03:52:44.148Z,77.26
2018-06-28T03:53:24.721Z,77.08
2018-06-28T03:54:05.286Z,76.98
2018-06-28T03:54:45.854Z,76.98
2018-06-28T03:55:26.414Z,77.17
2018-06-28T03:56:06.967Z,77.08
2018-06-28T03:56:47.533Z,76.88
2018-06-28T03:57:28.120Z,76.88
2018-06-28T03:58:08.701Z,77.26
2018-06-28T03:58:49.249Z,76.98
2018-06-28T03:59:29.888Z,77.17
2018-06-28T04:00:10.434Z,77.08
2018-06-28T04:00:50.996Z,77.08
2018-06-28T04:01:31.570Z,76.88
2018-06-28T04:02:12.146Z,77.17
2018-06-28T04:02:52.714Z,77.08
2018-06-28T04:03:33.281Z,77.26
2018-06-28T04:04:13.827Z,77.26
2018-06-28T04:04:54.417Z,77.36
2018-06-28T04:05:34.993Z,77.08
2018-06-28T04:06:15.566Z,77.46
2018-06-28T04:06:56.117Z,77.75
2018-06-28T04:07:36.685Z,77.56
2018-06-28T04:08:17.244Z,77.17
2018-06-28T04:08:57.792Z,77.36
2018-06-28T04:09:38.342Z,77.46
2018-06-28T04:10:18.902Z,76.98
2018-06-28T04:10:59.471Z,77.26
2018-06-28T04:11:40.050Z,77.36
2018-06-28T04:12:20.605Z,77.75
2018-06-28T04:13:01.167Z,77.26
2018-06-28T04:13:41.711Z,77.46
2018-06-28T04:14:22.269Z,77.56
2018-06-28T04:15:02.855Z,77.46
2018-06-28T04:15:43.418Z,77.36
2018-06-28T04:16:23.973Z,77.46
2018-06-28T04:17:04.524Z,77.17
2018-06-28T04:17:45.095Z,77.46
2018-06-28T04:18:25.651Z,77.56
2018-06-28T04:19:06.227Z,77.46
2018-06-28T04:19:46.778Z,77.46
2018-06-28T04:20:27.404Z,77.65
2018-06-28T04:21:07.945Z,77.36
2018-06-28T04:21:48.510Z,77.65
2018-06-28T04:22:29.070Z,78.13
2018-06-28T04:23:09.636Z,77.84
2018-06-28T04:23:50.195Z,78.03
2018-06-28T04:24:30.735Z,77.75
2018-06-28T04:25:11.292Z,78.23
2018-06-28T04:25:51.850Z,77.84
2018-06-28T04:26:32.414Z,77.84
2018-06-28T04:27:12.979Z,78.23
2018-06-28T04:27:53.536Z,77.94
2018-06-28T04:28:34.102Z,77.75
2018-06-28T04:29:14.668Z,77.94
2018-06-28T04:29:55.222Z,78.03
2018-06-28T04:30:35.796Z,78.23
2018-06-28T04:31:16.340Z,78.03
2018-06-28T04:31:56.941Z,77.75
2018-06-28T04:32:37.560Z,77.56
2018-06-28T04:33:18.186Z,77.75
2018-06-28T04:33:58.684Z,77.75
2018-06-28T04:34:39.249Z,77.65
2018-06-28T04:35:19.826Z,77.65
2018-06-28T04:36:00.388Z,77.56
2018-06-28T04:36:40.961Z,77.75
2018-06-28T04:37:21.520Z,77.84
2018-06-28T04:38:02.081Z,77.36
2018-06-28T04:38:42.674Z,77.17
2018-06-28T04:39:23.251Z,77.08
2018-06-28T04:40:03.809Z,77.65
2018-06-28T04:40:44.353Z,77.56
2018-06-28T04:41:24.906Z,77.46
2018-06-28T04:42:05.440Z,77.59
2018-06-28T04:42:46.004Z,77.56
2018-06-28T04:43:26.570Z,77.94
2018-06-28T04:44:07.142Z,77.84
2018-06-28T04:44:47.707Z,77.46
2018-06-28T04:45:28.278Z,76.59
2018-06-28T04:46:08.872Z,77.36
2018-06-28T04:46:49.501Z,77.26
2018-06-28T04:47:30.082Z,77.46
2018-06-28T04:48:10.637Z,77.36
2018-06-28T04:48:51.204Z,76.98
2018-06-28T04:49:31.785Z,77.36
2018-06-28T04:50:12.342Z,77.01
2018-06-28T04:50:52.923Z,77.59
2018-06-28T04:51:33.513Z,76.79
2018-06-28T04:52:14.074Z,76.79
2018-06-28T04:52:54.637Z,77.11
2018-06-28T04:53:35.208Z,76.64
2018-06-28T04:54:15.743Z,76.73
2018-06-28T04:54:56.279Z,76.64
2018-06-28T04:55:36.873Z,76.54
2018-06-28T04:56:17.426Z,76.73
2018-06-28T04:56:57.990Z,76.44
2018-06-28T04:57:38.563Z,75.57
2018-06-28T04:58:19.119Z,76.25
2018-06-28T04:58:59.675Z,75.67
2018-06-28T04:59:40.248Z,75
2018-06-28T05:00:20.799Z,75.13
2018-06-28T05:01:01.357Z,74.81
2018-06-28T05:01:41.925Z,74.62
2018-06-28T05:02:22.489Z,74.55
2018-06-28T05:03:03.047Z,74.46
2018-06-28T05:03:43.626Z,74.46
2018-06-28T05:04:24.164Z,74.17
2018-06-28T05:05:04.746Z,74.27
2018-06-28T05:05:45.305Z,73.79
2018-06-28T05:06:25.864Z,73.88
2018-06-28T05:07:06.465Z,73.6
2018-06-28T05:07:46.987Z,73.5
2018-06-28T05:08:27.536Z,72.92
2018-06-28T05:09:08.109Z,73.02
2018-06-28T05:09:48.662Z,73.25
2018-06-28T05:10:29.217Z,73.92
2018-06-28T05:11:09.758Z,73.5
2018-06-28T05:11:50.387Z,73.25
2018-06-28T05:12:30.974Z,73.15
2018-06-28T05:13:11.561Z,72.86
2018-06-28T05:13:52.134Z,72.38
2018-06-28T05:14:32.716Z,72.29
2018-06-28T05:15:13.284Z,72.77
2018-06-28T05:15:53.874Z,72.38
2018-06-28T05:16:34.425Z,72.29
2018-06-28T05:17:14.982Z,72.86
2018-06-28T05:17:55.556Z,72.86
2018-06-28T05:18:36.121Z,72.77
2018-06-28T05:19:16.658Z,72.38
2018-06-28T05:19:57.236Z,72.86
2018-06-28T05:20:37.779Z,72.29
2018-06-28T05:21:18.345Z,71.91
2018-06-28T05:21:58.918Z,72.29
2018-06-28T05:22:39.474Z,71.91
2018-06-28T05:23:20.056Z,72.29
2018-06-28T05:24:00.585Z,72
2018-06-28T05:24:41.162Z,71.81
2018-06-28T05:25:21.708Z,70.84
2018-06-28T05:26:02.282Z,70.65
2018-06-28T05:26:42.848Z,70.84
2018-06-28T05:27:23.440Z,70.65
2018-06-28T05:28:04.012Z,70.37
2018-06-28T05:28:44.568Z,70.21
2018-06-28T05:29:25.134Z,69.92
2018-06-28T05:30:05.718Z,70.59
2018-06-28T05:30:46.274Z,70.11
2018-06-28T05:31:26.822Z,70.01
2018-06-28T05:32:07.382Z,69.92
2018-06-28T05:32:47.955Z,70.11
2018-06-28T05:33:28.521Z,70.01
2018-06-28T05:34:09.090Z,69.53
2018-06-28T05:34:49.646Z,69.24
2018-06-28T05:35:30.218Z,70.21
2018-06-28T05:36:10.775Z,69.28
2018-06-28T05:36:51.343Z,69.38
2018-06-28T05:37:31.902Z,69.47
2018-06-28T05:38:12.506Z,69.06
2018-06-28T05:38:53.029Z,69.28
2018-06-28T05:39:33.626Z,69.47
2018-06-28T05:40:14.167Z,69.57
2018-06-28T05:40:54.725Z,68.32
2018-06-28T05:41:36.385Z,68.22
2018-06-28T05:42:18.092Z,68.7
2018-06-28T05:42:58.826Z,68.8
2018-06-28T05:43:39.480Z,69.18
2018-06-28T05:44:20.060Z,69.18
2018-06-28T05:45:01.079Z,68.64
2018-06-28T05:45:42.122Z,68.26
2018-06-28T05:46:23.306Z,68.35
2018-06-28T05:47:04.087Z,67.03
2018-06-28T05:47:44.929Z,67.23
2018-06-28T05:48:25.485Z,66.94
2018-06-28T05:49:06.035Z,67.23
2018-06-28T05:49:47.028Z,66.88
2018-06-28T05:50:27.654Z,66.3
2018-06-28T05:51:08.238Z,66.2
2018-06-28T05:51:49.090Z,66.97
2018-06-28T05:52:29.768Z,65.75
2018-06-28T05:53:10.325Z,64.59
2018-06-28T05:53:50.965Z,64.02
2018-06-28T05:54:31.518Z,64.69
2018-06-28T05:55:12.093Z,64.59
2018-06-28T05:55:52.623Z,63.44
2018-06-28T05:56:33.181Z,63.15
2018-06-28T05:57:13.748Z,63.54
2018-06-28T05:57:54.301Z,63.82
2018-06-28T05:58:34.883Z,63.34
2018-06-28T05:59:15.456Z,63.82
2018-06-28T05:59:55.990Z,63.73
2018-06-28T06:00:36.547Z,63.73
2018-06-28T06:01:17.110Z,63.06
2018-06-28T06:01:57.649Z,63.82
2018-06-28T06:02:38.199Z,63.57
2018-06-28T06:03:18.757Z,63.85
2018-06-28T06:03:59.306Z,62.89
2018-06-28T06:04:39.846Z,63.18
2018-06-28T06:05:20.399Z,62.79
2018-06-28T06:06:00.961Z,61.64
2018-06-28T06:06:41.521Z,61.54
2018-06-28T06:07:22.088Z,62.51
2018-06-28T06:08:02.665Z,64.05
2018-06-28T06:08:43.337Z,64.24
2018-06-28T06:09:23.859Z,62.51
2018-06-28T06:10:04.415Z,62.7
2018-06-28T06:10:45.057Z,62.79
2018-06-28T06:11:25.581Z,62.51
2018-06-28T06:12:06.504Z,62.89
2018-06-28T06:12:47.053Z,63.31
2018-06-28T06:13:27.642Z,63.02
2018-06-28T06:14:08.185Z,62.92
2018-06-28T06:14:48.784Z,63.7
2018-06-28T06:15:29.338Z,63.4
2018-06-28T06:16:09.904Z,62.86
2018-06-28T06:16:50.515Z,61.41
2018-06-28T06:17:31.091Z,58.7
2018-06-28T06:18:11.701Z,59.19
2018-06-28T06:18:52.476Z,60.25
2018-06-28T06:19:33.143Z,59.86
2018-06-28T06:20:13.875Z,60.18
2018-06-28T06:20:54.401Z,60.06
2018-06-28T06:21:34.978Z,59.7
2018-06-28T06:22:15.749Z,58.64
2018-06-28T06:22:56.306Z,56.8
2018-06-28T06:23:36.910Z,57.74
2018-06-28T06:24:17.417Z,57.48
2018-06-28T06:24:58.014Z,57.57
2018-06-28T06:25:38.572Z,57.48
2018-06-28T06:26:19.150Z,58.45
2018-06-28T06:26:59.713Z,59.22
2018-06-28T06:27:40.312Z,59.99
2018-06-28T06:28:20.815Z,59.89
2018-06-28T06:29:01.490Z,59.31
2018-06-28T06:29:42.087Z,58.64
2018-06-28T06:30:22.646Z,58.15
2018-06-28T06:31:03.319Z,58.83
2018-06-28T06:31:43.861Z,60.38
2018-06-28T06:32:24.455Z,57.51
2018-06-28T06:33:05.045Z,57.51
2018-06-28T06:33:45.557Z,57.79
2018-06-28T06:34:26.128Z,58.28
2018-06-28T06:35:06.681Z,59.15
2018-06-28T06:35:47.261Z,57.7
2018-06-28T06:36:27.848Z,57.89
2018-06-28T06:37:08.413Z,57.89
2018-06-28T06:37:48.976Z,58.86
2018-06-28T06:38:29.539Z,58.67
2018-06-28T06:39:10.095Z,59.25
2018-06-28T06:39:50.665Z,57.41
2018-06-28T06:40:31.219Z,57.51
2018-06-28T06:41:11.789Z,57.92
2018-06-28T06:41:52.465Z,56.57
2018-06-28T06:42:32.926Z,57.92
2018-06-28T06:43:13.469Z,57.31
2018-06-28T06:43:54.060Z,57.05
2018-06-28T06:44:34.714Z,56.95
2018-06-28T06:45:15.318Z,56.09
2018-06-28T06:45:55.904Z,57.63
2018-06-28T06:46:36.482Z,58.7
2018-06-28T06:47:17.021Z,58.6
2018-06-28T06:47:57.703Z,58.7
2018-06-28T06:48:38.294Z,59.18
2018-06-28T06:49:18.835Z,58.8
2018-06-28T06:49:59.376Z,58.72
2018-06-28T06:50:40.059Z,58.14
2018-06-28T06:51:20.665Z,57.76
2018-06-28T06:52:01.220Z,57.86
2018-06-28T06:52:41.828Z,56.98
2018-06-28T06:53:22.372Z,57.46
2018-06-28T06:54:02.935Z,58.14
2018-06-28T06:54:43.501Z,57.76
2018-06-28T06:55:24.064Z,56.43
2018-06-28T06:56:04.649Z,56.98
2018-06-28T06:56:45.208Z,56.6
2018-06-28T06:57:25.826Z,57.18
2018-06-28T06:58:06.384Z,57.5
2018-06-28T06:58:46.979Z,56.92
2018-06-28T06:59:27.584Z,56.72
2018-06-28T07:00:08.228Z,56.14
2018-06-28T07:00:48.883Z,55.17
2018-06-28T07:01:29.465Z,54.88
2018-06-28T07:02:10.026Z,55.36
2018-06-28T07:02:50.586Z,55.66
2018-06-28T07:03:31.205Z,55.46
2018-06-28T07:04:11.716Z,53.63
2018-06-28T07:04:52.239Z,54.01
2018-06-28T07:05:32.801Z,55.07
2018-06-28T07:06:13.359Z,56.24
2018-06-28T07:06:53.955Z,56.24
2018-06-28T07:07:34.504Z,55.56
2018-06-28T07:08:15.057Z,55.88
2018-06-28T07:08:55.643Z,56.16
2018-06-28T07:09:36.209Z,57.33
2018-06-28T07:10:16.819Z,57.71
2018-06-28T07:10:57.354Z,55
2018-06-28T07:11:37.903Z,52.78
2018-06-28T07:12:18.492Z,53.17
2018-06-28T07:12:59.037Z,55
2018-06-28T07:13:39.601Z,52.68
2018-06-28T07:14:20.144Z,53.75
2018-06-28T07:15:00.763Z,53.45
2018-06-28T07:15:41.318Z,52.87
2018-06-28T07:16:21.901Z,53.55
2018-06-28T07:17:02.499Z,54.03
2018-06-28T07:17:43.082Z,53.85
2018-06-28T07:18:23.655Z,54.71
2018-06-28T07:19:04.249Z,53.65
2018-06-28T07:19:44.787Z,53.45
2018-06-28T07:20:25.373Z,52.68
2018-06-28T07:21:06.207Z,52.49
2018-06-28T07:21:46.850Z,51.72
2018-06-28T07:22:27.474Z,52.29
2018-06-28T07:23:08.101Z,51.81
2018-06-28T07:23:48.572Z,51.72
2018-06-28T07:24:29.165Z,52.49
2018-06-28T07:25:09.736Z,53.07
2018-06-28T07:25:50.293Z,53.26
2018-06-28T07:26:30.870Z,53.94
2018-06-28T07:27:11.454Z,51.52
2018-06-28T07:27:52.001Z,52.49
2018-06-28T07:28:32.643Z,52.58
2018-06-28T07:29:13.173Z,52.58
2018-06-28T07:29:53.757Z,51.52
2018-06-28T07:30:34.273Z,50.38
2018-06-28T07:31:14.829Z,49.97
2018-06-28T07:31:55.373Z,52.1
2018-06-28T07:32:35.922Z,52.39
2018-06-28T07:33:16.517Z,52.58
2018-06-28T07:33:57.100Z,53.26
2018-06-28T07:34:37.635Z,54.06
2018-06-28T07:35:18.195Z,54.55
2018-06-28T07:35:58.746Z,53.39
2018-06-28T07:36:39.330Z,53.77
2018-06-28T07:37:19.973Z,53.09
2018-06-28T07:38:00.549Z,52.9
2018-06-28T07:38:41.115Z,53.02
2018-06-28T07:39:21.881Z,52.8
2018-06-28T07:40:02.255Z,50.89
2018-06-28T07:40:42.845Z,51.47
2018-06-28T07:41:23.405Z,49.54
2018-06-28T07:42:03.963Z,49.63
2018-06-28T07:42:44.526Z,51.09
2018-06-28T07:43:25.079Z,51.28
2018-06-28T07:44:05.639Z,52.54
2018-06-28T07:44:46.200Z,51.86
2018-06-28T07:45:26.757Z,50.99
2018-06-28T07:46:07.345Z,51.86
2018-06-28T07:46:47.917Z,51.86
2018-06-28T07:47:28.477Z,51.86
2018-06-28T07:48:09.036Z,50.99
2018-06-28T07:48:49.607Z,50.7
2018-06-28T07:49:30.176Z,50.7
2018-06-28T07:50:10.721Z,50.21
2018-06-28T07:50:51.280Z,50.14
2018-06-28T07:51:31.850Z,50.02
2018-06-28T07:52:12.432Z,49.82
2018-06-28T07:52:53.022Z,50.82
2018-06-28T07:53:33.566Z,50.62
2018-06-28T07:54:14.149Z,50.62
2018-06-28T07:54:54.736Z,48.59
2018-06-28T07:55:35.289Z,50.04
2018-06-28T07:56:15.975Z,48.1
2018-06-28T07:56:56.450Z,47.52
2018-06-28T07:57:37.039Z,47.52
2018-06-28T07:58:17.588Z,47.91
2018-06-28T07:58:58.160Z,48.3
2018-06-28T07:59:38.736Z,49.56
2018-06-28T08:00:19.322Z,48.1
2018-06-28T08:00:59.875Z,47.91
2018-06-28T08:01:40.443Z,48.1
2018-06-28T08:02:20.997Z,48.59
2018-06-28T08:03:01.555Z,49.85
2018-06-28T08:03:42.121Z,50.43
2018-06-28T08:04:22.661Z,49.87
2018-06-28T08:05:03.241Z,49.27
2018-06-28T08:05:43.789Z,48.61
2018-06-28T08:06:24.329Z,47.93
2018-06-28T08:07:04.887Z,48.13
2018-06-28T08:07:45.426Z,48.13
2018-06-28T08:08:25.954Z,47.72
2018-06-28T08:09:06.529Z,47.42
2018-06-28T08:09:47.128Z,46.45
2018-06-28T08:10:27.703Z,47.52
2018-06-28T08:11:08.278Z,48.1
2018-06-28T08:11:48.816Z,48.2
2018-06-28T08:12:29.433Z,48.1
2018-06-28T08:13:10.097Z,48.59
2018-06-28T08:13:50.667Z,48.59
2018-06-28T08:14:31.242Z,48.88
2018-06-28T08:15:11.801Z,49.56
2018-06-28T08:15:52.342Z,48.97
2018-06-28T08:16:32.900Z,48.59
2018-06-28T08:17:13.452Z,49.46
2018-06-28T08:17:53.984Z,49.56
2018-06-28T08:18:34.537Z,48.1
2018-06-28T08:19:15.080Z,46.75
2018-06-28T08:19:55.661Z,47.72
2018-06-28T08:20:36.217Z,46.55
2018-06-28T08:21:16.768Z,47.23
2018-06-28T08:21:57.308Z,46.84
2018-06-28T08:22:37.846Z,46.94
2018-06-28T08:23:18.420Z,46.07
2018-06-28T08:23:58.981Z,46.16
2018-06-28T08:24:39.540Z,46.14
2018-06-28T08:25:20.108Z,45.47
2018-06-28T08:26:00.636Z,46.72
2018-06-28T08:26:41.215Z,48.37
2018-06-28T08:27:21.806Z,45.85
2018-06-28T08:28:02.412Z,45.27
2018-06-28T08:28:42.969Z,45.65
2018-06-28T08:29:23.529Z,47.42
2018-06-28T08:30:04.074Z,47.33
2018-06-28T08:30:44.640Z,47.33
2018-06-28T08:31:25.187Z,47.42
2018-06-28T08:32:05.762Z,47.23
2018-06-28T08:32:46.423Z,47.62
2018-06-28T08:33:26.932Z,47.52
2018-06-28T08:34:07.489Z,47.03
2018-06-28T08:34:48.082Z,47.13
2018-06-28T08:35:28.661Z,46.84
2018-06-28T08:36:09.277Z,47.91
2018-06-28T08:36:49.793Z,47.72
2018-06-28T08:37:30.374Z,47.23
2018-06-28T08:38:10.932Z,47.42
2018-06-28T08:38:51.499Z,47.13
2018-06-28T08:39:32.070Z,47.62
2018-06-28T08:40:12.606Z,47.52
2018-06-28T08:40:53.173Z,47.52
2018-06-28T08:41:33.733Z,47.33
2018-06-28T08:42:14.273Z,46.04
2018-06-28T08:42:54.821Z,46.07
2018-06-28T08:43:35.371Z,47.5
2018-06-28T08:44:15.941Z,46.92